ADDS METAR Data INFO
IDs: Format: Raw Decoded Include TAF

Data at: 2206 UTC 24 Feb 2018

KMQY 242156Z 19014G23KT 10SM BKN038 24/17 A2988 RMK AO2 SLP016 T02390167
KMQY 242056Z 17014G20KT 10SM FEW047 24/17 A2989 RMK AO2 SLP019 T02440167 56038
KMQY 241956Z 18013G20KT 10SM SCT036 SCT080 24/17 A2993 RMK AO2 SLP038 T02390167
KMQY 241856Z 18011G16KT 10SM FEW031 BKN039 BKN055 23/17 A2996 RMK AO2 SLP050 T02330172
KMQY 241756Z 20008KT 10SM SCT027 BKN032 23/18 A3001
KMQY 241712Z 19011G17KT 10SM BKN024 23/18 A3003 RMK AO2
KMQY 241703Z 19007KT 10SM SCT024 23/18 A3004 RMK AO2
KMQY 241656Z 20007KT 160V240 10SM BKN022 23/18 A3005 RMK AO2 SLP082 T02280183
KMQY 241647Z 19010KT 10SM FEW021 SCT027 23/18 A3005 RMK AO2
KMQY 241620Z 21008G18KT 10SM SCT019 BKN025 21/18 A3007 RMK AO2
KMQY 241556Z 21006KT 10SM SCT016 21/18 A3007 RMK AO2 SLP092 T02060183
KMQY 241541Z 19006KT 10SM BKN016 20/18 A3008 RMK AO2
KMQY 241531Z 19006KT 10SM BKN013 OVC019 19/18 A3008 RMK AO2
KMQY 241519Z 20006KT 10SM BKN015 19/18 A3008 RMK AO2
KMQY 241456Z 18006KT 8SM SCT040 BKN055 19/18 A3008 RMK AO2 RAB00E34 SLP098 P0001 60006 T01940183 51003
KMQY 241421Z 18006KT 4SM -RA BR BKN013 BKN018 18/17 A3009 RMK AO2 RAB00 P0001
KMQY 241356Z 19006KT 3SM BR OVC017 18/17 A3008 RMK AO2 RAE1257B25E38 SLP098 P0000 T01780172
KMQY 241333Z 19006KT 3SM -RA BR OVC015 18/17 A3008 RMK AO2 RAE1257B25 P0000
KMQY 241326Z 20006KT 2SM -RA BR OVC015 18/17 A3008 RMK AO2 RAE1257B25 P0000
KMQY 241256Z 20006KT 10SM -RA OVC015 17/17 A3008 RMK AO2 RAB08 SLP097 P0005 T01720167
KMQY 241156Z AUTO 17004KT 10SM BKN020 OVC025 17/16 A3007 RMK AO2 SLP094 60002 70002 T01670156 10167 20150 56012
KMQY 241056Z AUTO 15004KT 10SM OVC023 16/15 A3007 RMK AO2 RAE10 SLP094 P0000 T01610150
KMQY 240956Z AUTO 00000KT 6SM -RA BR SCT010 OVC027 16/15 A3009 RMK AO2 RAE02B56 SLP099 P0000 T01560150
KMQY 240943Z AUTO 00000KT 5SM BR SCT010 OVC029 16/15 A3010 RMK AO2 RAE02 P0000
KMQY 240856Z AUTO 08004KT 9SM -RA SCT041 BKN049 OVC075 16/16 A3011 RMK AO2 SLP102 P0001 60002 T01610156 58023
KMQY 240756Z AUTO 00000KT 7SM -RA FEW060 BKN075 OVC110 15/14 A3014 RMK AO2 SLP120 P0001 T01500144
KMQY 240656Z AUTO 00000KT 10SM -RA OVC100 16/14 A3015 RMK AO2 RAB41 SLP123 P0000 T01560144
KMQY 240556Z AUTO 32005KT 10SM OVC100 16/15 A3018 RMK AO2 SLP132 T01610150 10217 20161 402670106 56005
KMQY 240456Z AUTO 00000KT 10SM BKN120 17/14 A3018 RMK AO2 SLP133 T01670144
KMQY 240356Z AUTO 00000KT 10SM BKN090 BKN110 19/13 A3018 RMK AO2 SLP133 T01940133
KMQY 240256Z 14003KT 10SM BKN120 19/13 A3019 RMK AO2 SLP144 T01940133 55002
KMQY 240156Z 18005KT 10SM CLR 21/13 A3019 RMK AO2 SLP146 T02110128
KMQY 240056Z 17007KT 10SM CLR 21/14 A3020 RMK AO2 SLP158 T02110139
KMQY 232356Z 16004KT 10SM CLR 22/14 A3020 RMK AO2 SLP156 T02220139 10267 20222 56006
KMQY 232256Z 16005KT 10SM CLR 24/14 A3021 RMK AO2 SLP157 T02390139
KMQY 232156Z 15009KT 10SM CLR 26/14 A3021 RMK AO2 SLP155 T02560144
KMQY 232056Z 19008KT 10SM FEW050 26/14 A3022 RMK AO2 SLP154 T02610144 56028
KMQY 231956Z 17009G15KT 10SM SCT050 25/15 A3024 RMK AO2 SLP164 T02500150
KMQY 231856Z 20009G18KT 170V240 10SM SCT043 26/16 A3027 RMK AO2 SLP175 T02560156
KMQY 231756Z 23011G17KT 10SM SCT041 24/16 A3030 RMK AO2 SLP191 T02440161 10250 20117 58016
KMQY 231656Z 21008G16KT 10SM FEW040 24/17 A3034 RMK AO2 SLP206 T02440167
KMQY 231556Z 23008KT 10SM SCT049 21/16 A3036
KMQY 231456Z 18004KT 10SM SCT047 19/17 A3035 RMK AO2 SLP219 T01890172 53011
KMQY 231356Z 00000KT 10SM BKN043 16/16 A3034 RMK AO2 SLP222 T01560156
KMQY 231256Z 00000KT 10SM SCT035 12/12 A3032 RMK AO2 SLP221 T01220122
KMQY 231251Z 00000KT 10SM FEW035 12/12 A3031 RMK AO2
KMQY 231236Z AUTO 00000KT 1 3/4SM BR FEW034 12/12 A3031 RMK AO2 VIS 3/4V5
KMQY 231156Z AUTO 00000KT 9SM OVC032 12/12 A3031 RMK AO2 SLP217 70007 T01220122 10133 20106 51009
KMQY 231056Z AUTO 00000KT 9SM CLR 12/12 A3031 RMK AO2 SLP217 T01170117
KMQY 231037Z AUTO 36005KT 5SM BR CLR 11/11 A3030 RMK AO2
KMQY 231015Z AUTO 00000KT 2SM BR CLR 11/11 A3029 RMK AO2 VIS 3/4V5
KMQY 231007Z AUTO 00000KT 1SM BR CLR 11/11 A3028 RMK AO2